createdAt,value
2019-06-01T00:01:02.994Z,16.90
2019-06-01T00:04:11.672Z,16.90
2019-06-01T00:07:20.297Z,16.90
2019-06-01T00:10:39.169Z,16.80
2019-06-01T00:13:47.799Z,16.80
2019-06-01T00:16:56.435Z,16.70
2019-06-01T00:20:03.729Z,16.70
2019-06-01T00:23:12.283Z,16.70
2019-06-01T00:26:20.876Z,16.60
2019-06-01T00:29:29.423Z,16.60
2019-06-01T00:32:38.015Z,16.60
2019-06-01T00:35:47.437Z,16.60
2019-06-01T00:38:56.284Z,16.60
2019-06-01T00:42:04.873Z,16.60
2019-06-01T00:45:13.890Z,16.50
2019-06-01T00:48:22.517Z,16.60
2019-06-01T00:51:31.122Z,16.60
2019-06-01T00:54:39.717Z,16.60
2019-06-01T00:57:48.210Z,16.60
2019-06-01T01:01:07.010Z,16.50
2019-06-01T01:04:15.623Z,16.60
2019-06-01T01:07:24.118Z,16.60
2019-06-01T01:10:32.728Z,16.60
2019-06-01T01:13:41.641Z,16.60
2019-06-01T01:16:51.542Z,16.60
2019-06-01T01:20:00.669Z,16.60
2019-06-01T01:23:09.808Z,16.60
2019-06-01T01:26:18.421Z,16.70
2019-06-01T01:29:27.176Z,16.70
2019-06-01T01:32:35.756Z,16.60
2019-06-01T01:35:44.410Z,16.60
2019-06-01T01:39:03.798Z,16.60
2019-06-01T01:42:22.408Z,16.60
2019-06-01T01:45:31.020Z,16.60
2019-06-01T01:48:39.621Z,16.70
2019-06-01T01:51:48.315Z,16.70
2019-06-01T01:54:56.860Z,16.80
2019-06-01T01:58:05.724Z,16.80
2019-06-01T02:01:22.400Z,16.80
2019-06-01T02:04:24.577Z,16.90
2019-06-01T02:07:43.375Z,16.90
2019-06-01T02:10:53.038Z,16.90
2019-06-01T02:14:02.201Z,16.90
2019-06-01T02:17:10.866Z,17.00
2019-06-01T02:20:19.147Z,17.00
2019-06-01T02:23:28.358Z,17.00
2019-06-01T02:26:36.987Z,17.00
2019-06-01T02:29:45.796Z,17.00
2019-06-01T02:32:56.199Z,17.00
2019-06-01T02:36:05.405Z,17.00
2019-06-01T02:39:15.367Z,17.00
2019-06-01T02:42:24.388Z,17.00
2019-06-01T02:45:32.989Z,17.00
2019-06-01T02:48:42.979Z,17.00
2019-06-01T02:52:01.878Z,17.00
2019-06-01T02:55:15.659Z,17.10
2019-06-01T02:58:24.181Z,17.00
2019-06-01T03:01:36.723Z,17.00
2019-06-01T03:04:58.881Z,17.00
2019-06-01T03:08:20.313Z,17.10
2019-06-01T03:11:40.699Z,17.10
2019-06-01T03:14:50.961Z,17.00
2019-06-01T03:18:03.443Z,17.00
2019-06-01T03:21:25.425Z,17.10
2019-06-01T03:24:37.972Z,17.10
2019-06-01T03:27:59.973Z,17.10
2019-06-01T03:31:10.492Z,17.10
2019-06-01T03:34:19.089Z,17.10
2019-06-01T03:37:27.494Z,17.10
2019-06-01T03:40:36.095Z,17.10
2019-06-01T03:43:44.716Z,17.10
2019-06-01T03:47:03.930Z,17.10
2019-06-01T03:50:23.876Z,17.20
2019-06-01T03:53:32.399Z,17.20
2019-06-01T03:56:41.010Z,17.20
2019-06-01T04:00:00.959Z,17.30
2019-06-01T04:03:09.703Z,17.30
2019-06-01T04:06:18.377Z,17.40
2019-06-01T04:09:27.040Z,17.40
2019-06-01T04:12:35.620Z,17.40
2019-06-01T04:15:44.237Z,17.40
2019-06-01T04:18:53.141Z,17.40
2019-06-01T04:22:01.962Z,17.50
2019-06-01T04:25:10.738Z,17.50
2019-06-01T04:28:19.394Z,17.50
2019-06-01T04:31:38.285Z,17.50
2019-06-01T04:34:47.003Z,17.50
2019-06-01T04:37:55.605Z,17.50
2019-06-01T04:41:05.587Z,17.60
2019-06-01T04:44:14.464Z,17.60
2019-06-01T04:47:23.119Z,17.60
2019-06-01T04:50:32.109Z,17.70
2019-06-01T04:53:40.691Z,17.70
2019-06-01T04:56:49.388Z,17.80
2019-06-01T04:59:58.076Z,17.80
2019-06-01T05:03:08.748Z,17.80
2019-06-01T05:06:27.142Z,17.90
2019-06-01T05:09:35.720Z,17.90
2019-06-01T05:12:44.414Z,18.00
2019-06-01T05:15:53.041Z,18.00
2019-06-01T05:19:00.051Z,18.00
2019-06-01T05:22:08.741Z,18.10
2019-06-01T05:25:17.557Z,18.10
2019-06-01T05:28:26.193Z,18.10
2019-06-01T05:31:34.814Z,18.10
2019-06-01T05:34:53.666Z,18.20
2019-06-01T05:38:02.285Z,18.20
2019-06-01T05:41:11.943Z,18.30
2019-06-01T05:44:21.304Z,18.40
2019-06-01T05:47:28.896Z,18.40
2019-06-01T05:50:37.510Z,18.40
2019-06-01T05:53:46.127Z,18.40
2019-06-01T05:56:54.797Z,18.50
2019-06-01T06:00:03.419Z,18.50
2019-06-01T06:03:15.088Z,18.50
2019-06-01T06:06:22.463Z,18.50
2019-06-01T06:09:31.069Z,18.60
2019-06-01T06:12:39.771Z,18.70
2019-06-01T06:15:58.621Z,18.80
2019-06-01T06:19:07.286Z,18.80
2019-06-01T06:22:16.193Z,18.80
2019-06-01T06:25:28.316Z,18.80
2019-06-01T06:28:35.239Z,18.90
2019-06-01T06:31:43.846Z,18.90
2019-06-01T06:34:52.454Z,19.10
2019-06-01T06:38:01.214Z,19.30
2019-06-01T06:41:09.337Z,19.50
2019-06-01T06:44:29.532Z,19.60
2019-06-01T06:47:39.892Z,19.70
2019-06-01T06:50:48.496Z,19.70
2019-06-01T06:53:55.623Z,19.70
2019-06-01T06:57:04.307Z,19.70
2019-06-01T07:00:13.745Z,19.80
2019-06-01T07:03:23.099Z,19.80
2019-06-01T07:06:42.020Z,19.90
2019-06-01T07:09:50.591Z,20.00
2019-06-01T07:12:59.298Z,20.10
2019-06-01T07:16:07.917Z,20.20
2019-06-01T07:19:16.651Z,20.30
2019-06-01T07:22:23.855Z,20.30
2019-06-01T07:25:33.042Z,20.20
2019-06-01T07:28:44.556Z,20.20
2019-06-01T07:31:53.249Z,20.10
2019-06-01T07:35:01.937Z,20.10
2019-06-01T07:38:11.826Z,20.10
2019-06-01T07:41:20.681Z,20.20
2019-06-01T07:44:29.371Z,20.40
2019-06-01T07:47:48.708Z,20.50
2019-06-01T07:50:57.444Z,20.80
2019-06-01T07:54:06.181Z,21.00
2019-06-01T07:57:14.800Z,21.10
2019-06-01T08:00:24.517Z,21.10
2019-06-01T08:03:35.092Z,21.10
2019-06-01T08:06:47.307Z,21.10
2019-06-01T08:09:54.124Z,21.00
2019-06-01T08:13:02.802Z,21.00
2019-06-01T08:16:11.434Z,21.10
2019-06-01T08:19:32.756Z,21.10
2019-06-01T08:22:41.287Z,21.10
2019-06-01T08:25:49.812Z,21.00
2019-06-01T08:28:58.467Z,21.10
2019-06-01T08:32:07.073Z,21.20
2019-06-01T08:35:15.887Z,21.20
2019-06-01T08:38:25.556Z,21.30
2019-06-01T08:41:34.329Z,21.50
2019-06-01T08:44:43.059Z,21.60
2019-06-01T08:47:51.678Z,21.70
2019-06-01T08:51:00.355Z,21.70
2019-06-01T08:54:08.950Z,21.70
2019-06-01T08:57:18.896Z,21.60
2019-06-01T09:00:37.762Z,21.70
2019-06-01T09:03:47.080Z,21.70
2019-06-01T09:07:05.782Z,21.70
2019-06-01T09:10:15.755Z,21.60
2019-06-01T09:13:25.130Z,21.70
2019-06-01T09:16:45.468Z,21.70
2019-06-01T09:19:54.165Z,21.70
2019-06-01T09:23:02.774Z,21.70
2019-06-01T09:26:11.404Z,21.80
2019-06-01T09:29:21.244Z,21.80
2019-06-01T09:32:30.095Z,21.90
2019-06-01T09:35:55.590Z,21.90
2019-06-01T09:38:59.575Z,22.00
2019-06-01T09:42:08.199Z,22.00
2019-06-01T09:45:17.227Z,22.00
2019-06-01T09:48:27.062Z,22.10
2019-06-01T09:51:35.864Z,22.20
2019-06-01T09:54:44.585Z,22.40
2019-06-01T09:57:53.303Z,22.60
2019-06-01T10:01:02.249Z,22.70
2019-06-01T10:04:11.027Z,22.70
2019-06-01T10:07:19.621Z,22.70
2019-06-01T10:10:29.746Z,22.70
2019-06-01T10:13:38.563Z,22.70
2019-06-01T10:16:47.304Z,22.80
2019-06-01T10:20:07.103Z,22.80
2019-06-01T10:23:15.639Z,22.90
2019-06-01T10:26:24.282Z,23.00
2019-06-01T10:29:43.217Z,22.90
2019-06-01T10:32:51.919Z,22.90
2019-06-01T10:36:18.595Z,23.00
2019-06-01T10:39:10.960Z,23.00
2019-06-01T10:42:19.586Z,23.10
2019-06-01T10:45:28.193Z,23.20
2019-06-01T10:48:37.993Z,23.30
2019-06-01T10:51:46.821Z,23.30
2019-06-01T10:54:55.426Z,23.40
2019-06-01T10:58:14.325Z,23.40
2019-06-01T11:01:23.146Z,23.50
2019-06-01T11:04:32.764Z,23.60
2019-06-01T11:07:43.276Z,23.60
2019-06-01T11:10:52.014Z,23.60
2019-06-01T11:14:00.537Z,23.70
2019-06-01T11:17:09.156Z,23.70
2019-06-01T11:20:28.034Z,23.80
2019-06-01T11:23:37.484Z,23.70
2019-06-01T11:26:44.749Z,23.80
2019-06-01T11:29:53.307Z,23.90
2019-06-01T11:33:12.199Z,24.00
2019-06-01T11:36:20.833Z,24.10
2019-06-01T11:39:29.446Z,24.10
2019-06-01T11:42:39.069Z,24.20
2019-06-01T11:45:47.924Z,24.30
2019-06-01T11:49:07.013Z,24.30
2019-06-01T11:52:15.141Z,24.40
2019-06-01T11:55:23.675Z,24.50
2019-06-01T11:58:32.310Z,24.60
2019-06-01T12:01:41.755Z,24.60
2019-06-01T12:04:50.533Z,24.60
2019-06-01T12:07:59.647Z,24.70
2019-06-01T12:11:08.342Z,24.90
2019-06-01T12:14:18.167Z,25.10
2019-06-01T12:17:26.810Z,25.10
2019-06-01T12:20:36.635Z,25.30
2019-06-01T12:23:55.738Z,25.50
2019-06-01T12:27:04.496Z,25.80
2019-06-01T12:30:13.519Z,26.20
2019-06-01T12:33:22.165Z,26.90
2019-06-01T12:36:30.783Z,27.60
2019-06-01T12:39:40.377Z,28.00
2019-06-01T12:42:49.109Z,28.70
2019-06-01T12:46:07.154Z,29.60
2019-06-01T12:49:18.455Z,30.20
2019-06-01T12:52:27.058Z,30.30
2019-06-01T12:55:35.719Z,30.30
2019-06-01T12:58:46.026Z,30.30
2019-06-01T13:01:54.671Z,29.90
2019-06-01T13:05:03.474Z,28.90
2019-06-01T13:08:12.170Z,28.70
2019-06-01T13:11:20.981Z,28.60
2019-06-01T13:14:29.644Z,28.70
2019-06-01T13:17:38.155Z,28.50
2019-06-01T13:20:47.682Z,28.20
2019-06-01T13:23:56.554Z,27.80
2019-06-01T13:27:05.191Z,27.40
2019-06-01T13:30:14.255Z,27.20
2019-06-01T13:33:22.760Z,27.10
2019-06-01T13:36:32.882Z,27.10
2019-06-01T13:39:42.825Z,26.90
2019-06-01T13:42:51.734Z,26.70
2019-06-01T13:46:00.445Z,26.50
2019-06-01T13:49:09.084Z,26.40
2019-06-01T13:52:27.984Z,26.50
2019-06-01T13:55:36.544Z,26.50
2019-06-01T13:58:46.400Z,26.40
2019-06-01T14:01:55.380Z,26.30
2019-06-01T14:05:04.578Z,26.10
2019-06-01T14:08:28.045Z,26.20
2019-06-01T14:11:23.545Z,26.20
2019-06-01T14:14:32.306Z,26.20
2019-06-01T14:17:40.951Z,26.20
2019-06-01T14:20:49.699Z,26.30
2019-06-01T14:23:58.461Z,26.20
2019-06-01T14:27:07.199Z,26.20
2019-06-01T14:30:17.639Z,26.10
2019-06-01T14:33:27.611Z,25.90
2019-06-01T14:36:46.507Z,25.90
2019-06-01T14:39:55.425Z,25.80
2019-06-01T14:43:04.065Z,25.70
2019-06-01T14:46:12.975Z,25.70
2019-06-01T14:49:21.617Z,25.60
2019-06-01T14:52:30.162Z,25.50
2019-06-01T14:55:38.841Z,25.40
2019-06-01T14:58:47.803Z,25.40
2019-06-01T15:01:56.617Z,25.30
2019-06-01T15:05:06.182Z,25.20
2019-06-01T15:08:25.019Z,25.00
2019-06-01T15:11:33.725Z,24.80
2019-06-01T15:14:42.468Z,24.70
2019-06-01T15:17:51.808Z,24.70
2019-06-01T15:21:10.710Z,24.70
2019-06-01T15:24:19.493Z,24.80
2019-06-01T15:27:28.100Z,24.60
2019-06-01T15:30:36.767Z,24.50
2019-06-01T15:33:45.283Z,24.40
2019-06-01T15:36:55.563Z,24.30
2019-06-01T15:40:04.700Z,24.40
2019-06-01T15:43:13.346Z,24.30
2019-06-01T15:46:21.963Z,24.20
2019-06-01T15:49:30.599Z,24.20
2019-06-01T15:52:39.285Z,24.10
2019-06-01T15:55:59.192Z,24.20
2019-06-01T15:59:07.813Z,24.10
2019-06-01T16:02:16.412Z,24.10
2019-06-01T16:05:25.045Z,24.10
2019-06-01T16:08:44.029Z,24.00
2019-06-01T16:12:03.787Z,23.90
2019-06-01T16:15:14.046Z,23.80
2019-06-01T16:18:33.752Z,23.80
2019-06-01T16:21:53.725Z,23.80
2019-06-01T16:25:02.649Z,23.50
2019-06-01T16:28:11.440Z,23.40
2019-06-01T16:31:20.592Z,23.40
2019-06-01T16:34:29.138Z,23.40
2019-06-01T16:37:37.744Z,23.40
2019-06-01T16:40:46.376Z,23.50
2019-06-01T16:43:55.484Z,23.40
2019-06-01T16:47:04.635Z,23.40
2019-06-01T16:50:16.724Z,23.30
2019-06-01T16:53:25.241Z,23.20
2019-06-01T16:56:33.880Z,23.20
2019-06-01T16:59:42.104Z,23.10
2019-06-01T17:02:50.686Z,23.20
2019-06-01T17:06:09.438Z,23.10
2019-06-01T17:09:18.112Z,23.00
2019-06-01T17:12:26.651Z,22.90
2019-06-01T17:15:35.279Z,22.80
2019-06-01T17:18:45.213Z,22.80
2019-06-01T17:22:03.956Z,22.80
2019-06-01T17:25:13.004Z,22.80
2019-06-01T17:28:21.592Z,22.70
2019-06-01T17:31:30.240Z,22.70
2019-06-01T17:34:38.748Z,22.50
2019-06-01T17:37:47.515Z,22.40
2019-06-01T17:40:56.139Z,22.20
2019-06-01T17:44:04.838Z,22.20
2019-06-01T17:47:13.584Z,22.10
2019-06-01T17:50:23.574Z,22.00
2019-06-01T17:53:42.541Z,21.90
2019-06-01T17:56:51.177Z,21.70
2019-06-01T17:59:59.787Z,21.60
2019-06-01T18:03:12.093Z,21.70
2019-06-01T18:06:20.796Z,21.60
2019-06-01T18:09:29.586Z,21.60
2019-06-01T18:12:38.297Z,21.60
2019-06-01T18:15:50.117Z,21.60
2019-06-01T18:18:58.934Z,21.40
2019-06-01T18:22:07.024Z,21.30
2019-06-01T18:25:29.018Z,21.30
2019-06-01T18:28:37.663Z,21.10
2019-06-01T18:31:46.438Z,21.00
2019-06-01T18:34:54.965Z,21.00
2019-06-01T18:38:05.724Z,20.90
2019-06-01T18:41:19.531Z,20.80
2019-06-01T18:44:25.048Z,20.80
2019-06-01T18:47:33.761Z,20.80
2019-06-01T18:50:42.591Z,20.80
2019-06-01T18:53:52.618Z,20.80
2019-06-01T18:57:14.166Z,20.60
2019-06-01T19:00:15.702Z,20.50
2019-06-01T19:03:24.344Z,20.30
2019-06-01T19:06:32.848Z,20.10
2019-06-01T19:09:42.626Z,20.00
2019-06-01T19:12:51.267Z,20.10
2019-06-01T19:16:10.150Z,20.10
2019-06-01T19:19:18.833Z,20.00
2019-06-01T19:22:27.496Z,19.90
2019-06-01T19:25:36.121Z,20.00
2019-06-01T19:28:44.995Z,19.90
2019-06-01T19:31:53.612Z,19.80
2019-06-01T19:35:02.285Z,19.60
2019-06-01T19:38:11.420Z,19.50
2019-06-01T19:41:20.296Z,19.40
2019-06-01T19:44:29.169Z,19.40
2019-06-01T19:47:37.787Z,19.20
2019-06-01T19:50:46.489Z,19.20
2019-06-01T19:53:55.096Z,19.20
2019-06-01T19:57:03.708Z,19.30
2019-06-01T20:00:12.516Z,19.10
2019-06-01T20:03:22.703Z,19.20
2019-06-01T20:06:31.407Z,19.20
2019-06-01T20:09:40.108Z,19.10
2019-06-01T20:13:04.947Z,19.10
2019-06-01T20:16:14.607Z,19.20
2019-06-01T20:19:23.353Z,19.10
2019-06-01T20:22:31.857Z,19.10
2019-06-01T20:25:39.536Z,19.10
2019-06-01T20:28:48.145Z,19.00
2019-06-01T20:31:56.902Z,18.90
2019-06-01T20:35:06.292Z,18.90
2019-06-01T20:38:16.450Z,18.80
2019-06-01T20:41:25.270Z,18.80
2019-06-01T20:44:33.981Z,18.80
2019-06-01T20:47:42.616Z,18.70
2019-06-01T20:50:51.393Z,18.60
2019-06-01T20:54:00.097Z,18.50
2019-06-01T20:57:08.731Z,18.50
2019-06-01T21:00:20.014Z,18.60
2019-06-01T21:03:28.660Z,18.50
2019-06-01T21:06:37.288Z,18.50
2019-06-01T21:09:45.900Z,18.50
2019-06-01T21:12:54.598Z,18.50
2019-06-01T21:16:03.210Z,18.40
2019-06-01T21:19:11.846Z,18.50
2019-06-01T21:22:36.703Z,18.40
2019-06-01T21:25:45.429Z,18.40
2019-06-01T21:28:53.965Z,18.30
2019-06-01T21:32:02.805Z,18.30
2019-06-01T21:35:11.419Z,18.20
2019-06-01T21:38:21.083Z,18.20
2019-06-01T21:41:29.939Z,18.20
2019-06-01T21:44:48.803Z,18.10
2019-06-01T21:47:57.466Z,18.10
2019-06-01T21:51:06.075Z,18.10
2019-06-01T21:54:16.025Z,18.10
2019-06-01T21:57:27.642Z,18.10
2019-06-01T22:00:48.128Z,18.00
2019-06-01T22:03:56.664Z,17.90
2019-06-01T22:07:06.498Z,17.90
2019-06-01T22:10:15.288Z,17.80
2019-06-01T22:13:25.886Z,17.80
2019-06-01T22:16:34.341Z,17.80
2019-06-01T22:19:42.980Z,17.50
2019-06-01T22:23:01.872Z,17.60
2019-06-01T22:26:10.646Z,17.50
2019-06-01T22:29:20.175Z,17.50
2019-06-01T22:32:31.306Z,17.40
2019-06-01T22:35:39.266Z,17.40
2019-06-01T22:38:47.917Z,17.40
2019-06-01T22:42:06.709Z,17.40
2019-06-01T22:45:15.541Z,17.50
2019-06-01T22:48:24.604Z,17.50
2019-06-01T22:51:43.619Z,17.30
2019-06-01T22:54:52.211Z,17.30
2019-06-01T22:58:00.787Z,17.30
2019-06-01T23:01:09.414Z,17.30
2019-06-01T23:04:18.051Z,17.30
2019-06-01T23:07:27.253Z,17.20
2019-06-01T23:10:35.994Z,17.20
2019-06-01T23:13:53.404Z,17.20
2019-06-01T23:16:54.964Z,17.20
2019-06-01T23:20:03.736Z,17.20
2019-06-01T23:23:13.759Z,17.10
2019-06-01T23:26:32.599Z,17.10
2019-06-01T23:29:42.011Z,17.10
2019-06-01T23:32:50.614Z,17.00
2019-06-01T23:35:59.742Z,17.00
2019-06-01T23:39:09.257Z,16.90
2019-06-01T23:42:17.758Z,16.90
2019-06-01T23:45:26.668Z,16.80
2019-06-01T23:48:35.424Z,16.70
2019-06-01T23:51:44.061Z,16.60
2019-06-01T23:54:52.826Z,16.60
2019-06-01T23:58:01.346Z,16.60
